Time;durP1;ratioP1;P1;durP2;ratioP2;P2;SDS_P1;SDS_P2;PMS_P1;PMS_P2;Temp;Humidity;BMP_temperature;BMP_pressure;BME280_temperature;BME280_humidity;BME280_pressure;Samples;Min_cycle;Max_cycle;Signal;HPM_P1;HPM_P2
2022/04/01 00:01:57;;;;;;;;;;;;;;;1.26;70.14;98686.14;2094152;84;20225;-80
2022/04/01 00:04:58;;;;;;;;;;;;;;;1.26;70.27;98685.33;2091447;84;20461;-78
2022/04/01 00:08:00;;;;;;;;;;;;;;;1.22;70.52;98683.48;2106745;83;20134;-79
2022/04/01 00:11:01;;;;;;;;;;;;;;;1.20;70.61;98678.88;2134095;82;20182;-82
2022/04/01 00:14:03;;;;;;;;;;;;;;;1.17;70.59;98680.96;2091279;84;20147;-81
2022/04/01 00:17:04;;;;;;;;;;;;;;;1.10;70.97;98684.14;2095217;84;20128;-81
2022/04/01 00:20:06;;;;;;;;;;;;;;;1.02;71.40;98680.59;2102524;83;20119;-79
2022/04/01 00:23:07;;;;;;;;;;;;;;;0.92;71.61;98680.59;2106529;83;20129;-82
2022/04/01 00:26:09;;;;;;;;;;;;;;;0.87;71.85;98676.27;2104178;83;20109;-81
2022/04/01 00:29:16;;;;;;;;;;;;;;;0.78;72.77;98679.24;2106352;83;20929;-80
2022/04/01 00:32:17;;;;;;;;;;;;;;;0.70;72.87;98684.33;2107808;84;20143;-81
2022/04/01 00:35:18;;;;;;;;;;;;;;;0.61;73.21;98679.95;2102047;83;20174;-81
2022/04/01 00:38:19;;;;;;;;;;;;;;;0.54;73.33;98686.70;2103104;83;20481;-81
2022/04/01 00:41:20;;;;;;;;;;;;;;;0.48;73.67;98684.16;2101826;84;20131;-79
2022/04/01 00:44:23;;;;;;;;;;;;;;;0.44;74.27;98683.59;2102211;84;20147;-80
2022/04/01 00:47:24;;;;;;;;;;;;;;;0.40;74.30;98684.02;2101847;83;20135;-79
2022/04/01 00:50:25;;;;;;;;;;;;;;;0.35;74.45;98687.03;2106714;83;20418;-80
2022/04/01 00:53:27;;;;;;;;;;;;;;;0.30;75.37;98684.00;2102060;83;20160;-79
2022/04/01 00:56:30;;;;;;;;;;;;;;;0.19;75.32;98676.30;2107547;83;20463;-79
2022/04/01 00:59:32;;;;;;;;;;;;;;;0.15;75.96;98680.16;2106817;83;20187;-79
2022/04/01 01:02:34;;;;;;;;;;;;;;;0.10;76.18;98675.82;2099958;84;20160;-81
2022/04/01 01:05:36;;;;;;;;;;;;;;;0.06;76.42;98683.09;2107231;83;20147;-80
2022/04/01 01:08:37;;;;;;;;;;;;;;;0.00;77.08;98678.42;2100230;83;20841;-78
2022/04/01 01:11:38;;;;;;;;;;;;;;;-0.07;77.34;98682.52;2101264;83;20195;-80
2022/04/01 01:14:40;;;;;;;;;;;;;;;-0.15;77.77;98667.53;2102430;84;20182;-80
2022/04/01 01:17:42;;;;;;;;;;;;;;;-0.21;78.63;98681.11;2136313;81;20133;-79
2022/04/01 01:20:43;;;;;;;;;;;;;;;-0.26;79.05;98669.77;2141813;82;20156;-80
2022/04/01 01:23:45;;;;;;;;;;;;;;;-0.30;79.11;98680.61;2131093;82;20120;-80
2022/04/01 01:26:51;;;;;;;;;;;;;;;-0.33;79.37;98678.27;2133009;82;20428;-78
2022/04/01 01:29:52;;;;;;;;;;;;;;;-0.38;78.67;98689.08;2112579;82;20168;-81
2022/04/01 01:32:53;;;;;;;;;;;;;;;-0.41;79.54;98678.92;2110919;82;20135;-78
2022/04/01 01:35:54;;;;;;;;;;;;;;;-0.49;80.56;98675.67;2107566;82;20163;-80
2022/04/01 01:38:55;;;;;;;;;;;;;;;-0.55;80.38;98672.29;2111069;82;20177;-80
2022/04/01 01:41:57;;;;;;;;;;;;;;;-0.58;81.10;98671.73;2107478;83;20157;-79
2022/04/01 01:44:58;;;;;;;;;;;;;;;-0.65;81.48;98674.02;2094517;83;20146;-80
2022/04/01 01:47:59;;;;;;;;;;;;;;;-0.69;81.94;98669.55;2094364;84;20167;-79
2022/04/01 01:57:40;;;;;;;;;;;;;;;-0.80;82.12;98655.80;2103136;82;20461;-78
2022/04/01 02:00:42;;;;;;;;;;;;;;;-0.84;82.35;98659.63;2105591;82;20140;-79
2022/04/01 02:03:43;;;;;;;;;;;;;;;-0.89;82.29;98661.80;2109179;82;20149;-80
2022/04/01 02:06:44;;;;;;;;;;;;;;;-0.94;82.56;98660.39;2111545;82;20131;-79
2022/04/01 02:09:46;;;;;;;;;;;;;;;-0.99;82.92;98652.14;2105664;82;20468;-80
2022/04/01 02:12:48;;;;;;;;;;;;;;;-1.01;82.87;98658.45;2112232;82;20128;-78
2022/04/01 02:15:49;;;;;;;;;;;;;;;-1.05;82.97;98653.95;2106093;82;20155;-78
2022/04/01 02:18:50;;;;;;;;;;;;;;;-1.08;83.37;98660.73;2136564;81;20128;-79
2022/04/01 02:21:53;;;;;;;;;;;;;;;-1.11;83.16;98662.28;2145362;81;20475;-80
2022/04/01 02:24:54;;;;;;;;;;;;;;;-1.15;83.25;98659.61;2140425;81;20126;-78
2022/04/01 02:27:57;;;;;;;;;;;;;;;-1.17;83.65;98657.11;2144741;81;20136;-79
2022/04/01 02:30:59;;;;;;;;;;;;;;;-1.20;83.50;98654.77;2152413;81;20141;-80
2022/04/01 02:34:04;;;;;;;;;;;;;;;-1.21;83.91;98652.28;2138375;81;20143;-80
2022/04/01 02:37:05;;;;;;;;;;;;;;;-1.23;83.80;98645.10;2144256;81;20135;-80
2022/04/01 02:40:08;;;;;;;;;;;;;;;-1.24;83.65;98651.23;2144665;81;20275;-79
2022/04/01 02:43:11;;;;;;;;;;;;;;;-1.25;83.77;98654.80;2144489;81;20140;-79
2022/04/01 02:46:13;;;;;;;;;;;;;;;-1.27;83.94;98652.31;2148496;81;20153;-76
2022/04/01 02:49:19;;;;;;;;;;;;;;;-1.30;84.09;98649.97;2141011;81;20129;-80
2022/04/01 02:52:35;;;;;;;;;;;;;;;-1.33;83.91;98651.53;2141243;81;20164;-78
2022/04/01 02:55:38;;;;;;;;;;;;;;;-1.34;84.25;98644.69;2140088;81;20189;-79
2022/04/01 02:58:39;;;;;;;;;;;;;;;-1.37;84.54;98648.36;2145204;81;20174;-79
2022/04/01 03:01:41;;;;;;;;;;;;;;;-1.38;84.49;98649.33;2141459;81;20164;-79
2022/04/01 03:04:42;;;;;;;;;;;;;;;-1.41;84.45;98651.33;2144976;81;20173;-78
2022/04/01 03:07:44;;;;;;;;;;;;;;;-1.41;84.67;98650.03;2124238;81;20127;-79
2022/04/01 03:10:46;;;;;;;;;;;;;;;-1.43;84.79;98650.66;2092817;83;20465;-78
2022/04/01 03:13:47;;;;;;;;;;;;;;;-1.45;84.45;98646.87;2109672;83;20147;-78
2022/04/01 03:17:02;;;;;;;;;;;;;;;-1.44;84.49;98651.11;2110414;83;20479;-79
2022/04/01 03:20:11;;;;;;;;;;;;;;;-1.46;84.53;98656.94;2107601;83;20185;-80
2022/04/01 03:23:08;;;;;;;;;;;;;;;-1.45;84.65;98655.97;2105772;83;20157;-79
2022/04/01 03:26:14;;;;;;;;;;;;;;;-1.47;84.85;98650.55;2106108;83;20178;-79
2022/04/01 03:29:31;;;;;;;;;;;;;;;-1.48;84.49;98652.33;2106215;83;20158;-76
2022/04/01 03:32:32;;;;;;;;;;;;;;;-1.48;84.62;98652.81;2102232;83;20124;-79
2022/04/01 03:35:33;;;;;;;;;;;;;;;-1.49;84.31;98649.84;2106570;83;20286;-78
2022/04/01 03:38:35;;;;;;;;;;;;;;;-1.49;84.56;98647.23;2105031;83;20305;-79
2022/04/01 03:41:37;;;;;;;;;;;;;;;-1.49;84.28;98643.33;2102680;83;20130;-77
2022/04/01 03:44:41;;;;;;;;;;;;;;;-1.50;84.46;98641.69;2106822;83;20320;-79
2022/04/01 03:48:00;;;;;;;;;;;;;;;-1.54;84.70;98635.92;2101130;83;20445;-81
2022/04/01 03:51:04;;;;;;;;;;;;;;;-1.56;84.63;98633.92;2078889;83;20630;-78
2022/04/01 03:54:06;;;;;;;;;;;;;;;-1.57;84.46;98635.36;2099018;83;20519;-78
2022/04/01 03:57:09;;;;;;;;;;;;;;;-1.60;84.39;98629.45;2090763;83;20123;-77
2022/04/01 04:00:30;;;;;;;;;;;;;;;-1.60;84.33;98641.64;2003911;87;20181;-78
2022/04/01 04:03:33;;;;;;;;;;;;;;;-1.62;84.51;98630.53;2004640;87;20201;-77
2022/04/01 04:06:35;;;;;;;;;;;;;;;-1.64;84.55;98645.42;2091786;83;20718;-78
2022/04/01 04:09:38;;;;;;;;;;;;;;;-1.65;84.47;98647.20;2105359;83;20180;-79
2022/04/01 04:12:42;;;;;;;;;;;;;;;-1.64;84.48;98644.94;2110174;83;20160;-79
2022/04/01 04:15:50;;;;;;;;;;;;;;;-1.64;84.19;98650.63;2109827;83;20496;-80
2022/04/01 04:18:55;;;;;;;;;;;;;;;-1.63;84.07;98652.30;2101753;83;20134;-79
2022/04/01 04:22:13;;;;;;;;;;;;;;;-1.60;84.00;98653.34;2102276;83;20143;-78
2022/04/01 04:25:19;;;;;;;;;;;;;;;-1.59;84.18;98659.70;2104258;83;20138;-78
2022/04/01 04:28:25;;;;;;;;;;;;;;;-1.59;84.16;98662.78;2078533;83;21848;-79
2022/04/01 04:31:30;;;;;;;;;;;;;;;-1.61;84.30;98664.67;2108761;83;20109;-79
2022/04/01 04:34:43;;;;;;;;;;;;;;;-1.66;84.29;98668.97;2107985;83;20162;-80
2022/04/01 04:37:46;;;;;;;;;;;;;;;-1.66;84.47;98667.67;2106364;83;20536;-83
2022/04/01 04:40:49;;;;;;;;;;;;;;;-1.69;84.52;98665.77;2103555;83;20177;-80
2022/04/01 04:43:52;;;;;;;;;;;;;;;-1.69;84.37;98667.07;2104905;83;20166;-78
2022/04/01 04:47:03;;;;;;;;;;;;;;;-1.69;84.51;98667.07;2105120;83;20158;-76
2022/04/01 04:50:06;;;;;;;;;;;;;;;-1.69;84.49;98675.73;2107158;83;20326;-80
2022/04/01 04:53:09;;;;;;;;;;;;;;;-1.70;84.61;98670.16;2078778;83;20296;-82
2022/04/01 04:56:10;;;;;;;;;;;;;;;-1.71;84.65;98665.91;2108699;83;20166;-81
2022/04/01 04:59:12;;;;;;;;;;;;;;;-1.70;84.53;98668.03;2110644;83;20141;-80
2022/04/01 05:02:26;;;;;;;;;;;;;;;-1.71;84.79;98665.09;2105351;83;20477;-82
2022/04/01 05:05:34;;;;;;;;;;;;;;;-1.72;84.76;98650.42;2107466;83;20166;-79
2022/04/01 05:08:49;;;;;;;;;;;;;;;-1.73;84.97;98647.00;2104462;83;20144;-79
2022/04/01 05:12:05;;;;;;;;;;;;;;;-1.73;84.83;98651.38;2103947;83;20211;-82
2022/04/01 05:15:26;;;;;;;;;;;;;;;-1.71;84.94;98667.70;2076508;83;20173;-80
2022/04/01 05:18:30;;;;;;;;;;;;;;;-1.69;84.80;98668.38;2104700;83;20214;-80
2022/04/01 05:21:35;;;;;;;;;;;;;;;-1.71;84.85;98672.41;2107224;83;20179;-83
2022/04/01 05:24:39;;;;;;;;;;;;;;;-1.69;84.83;98669.67;2107041;83;20167;-79
2022/04/01 05:27:45;;;;;;;;;;;;;;;-1.69;84.74;98661.88;2101053;83;20232;-81
2022/04/01 05:30:51;;;;;;;;;;;;;;;-1.69;84.79;98672.27;2107255;83;20458;-78
2022/04/01 05:34:13;;;;;;;;;;;;;;;-1.68;84.87;98673.95;2113027;83;20166;-78
2022/04/01 05:37:16;;;;;;;;;;;;;;;-1.67;84.78;98669.91;2108942;83;20132;-80
2022/04/01 05:40:18;;;;;;;;;;;;;;;-1.65;84.61;98677.11;2109059;83;20131;-80
2022/04/01 05:43:20;;;;;;;;;;;;;;;-1.63;84.64;98678.30;2093241;83;20544;-80
2022/04/01 05:46:41;;;;;;;;;;;;;;;-1.59;84.50;98671.89;2030299;86;20159;-78
2022/04/01 05:49:46;;;;;;;;;;;;;;;-1.59;84.44;98673.19;2030521;86;20168;-80
2022/04/01 05:52:50;;;;;;;;;;;;;;;-1.60;84.53;98665.87;2098122;83;20190;-78
2022/04/01 05:55:54;;;;;;;;;;;;;;;-1.60;84.29;98670.25;2113884;83;20158;-81
2022/04/01 05:58:55;;;;;;;;;;;;;;;-1.61;84.13;98668.09;2113159;83;20494;-81
2022/04/01 06:02:09;;;;;;;;;;;;;;;-1.59;83.98;98683.59;2114060;83;20131;-80
2022/04/01 06:05:19;;;;;;;;;;;;;;;-1.57;84.13;98686.91;2116613;83;20146;-82
2022/04/01 06:08:44;;;;;;;;;;;;;;;-1.56;84.16;98695.05;2110240;83;20144;-78
2022/04/01 06:11:53;;;;;;;;;;;;;;;-1.54;84.30;98692.34;2113503;83;20151;-78
2022/04/01 06:15:08;;;;;;;;;;;;;;;-1.53;84.10;98688.30;2109830;83;20196;-79
2022/04/01 06:18:24;;;;;;;;;;;;;;;-1.49;83.79;98691.47;2104077;83;20188;-78
2022/04/01 06:21:27;;;;;;;;;;;;;;;-1.49;83.55;98690.16;2110746;83;20174;-80
2022/04/01 06:24:55;;;;;;;;;;;;;;;-1.50;83.24;98688.04;2095158;83;20925;-78
2022/04/01 06:28:09;;;;;;;;;;;;;;;-1.48;83.45;98700.45;2105299;83;20584;-82
2022/04/01 06:31:11;;;;;;;;;;;;;;;-1.50;83.20;98695.84;2098873;83;20173;-80
2022/04/01 06:34:16;;;;;;;;;;;;;;;-1.47;83.27;98694.30;2101641;83;21018;-81
2022/04/01 06:37:48;;;;;;;;;;;;;;;-1.44;82.97;98699.24;2108607;83;20217;-79
2022/04/01 06:41:02;;;;;;;;;;;;;;;-1.43;82.75;98713.11;2104569;83;20126;-80
2022/04/01 06:44:05;;;;;;;;;;;;;;;-1.43;82.43;98707.90;2108212;83;20188;-80
2022/04/01 06:47:24;;;;;;;;;;;;;;;-1.44;82.17;98712.25;2109976;83;20153;-79
2022/04/01 06:50:27;;;;;;;;;;;;;;;-1.45;82.20;98700.20;2109561;83;20166;-80
2022/04/01 06:53:45;;;;;;;;;;;;;;;-1.45;82.33;98700.20;2004125;87;20210;-80
2022/04/01 06:56:55;;;;;;;;;;;;;;;-1.41;82.54;98691.22;2069789;83;20142;-80
2022/04/01 06:59:56;;;;;;;;;;;;;;;-1.38;82.23;98693.56;2082586;83;20134;-79
2022/04/01 07:02:57;;;;;;;;;;;;;;;-1.37;82.17;98691.30;2113032;83;20492;-79
2022/04/01 07:05:58;;;;;;;;;;;;;;;-1.32;82.16;98697.89;2107483;83;20130;-81
2022/04/01 07:09:00;;;;;;;;;;;;;;;-1.32;81.87;98701.34;2108834;83;20160;-79
2022/04/01 07:12:01;;;;;;;;;;;;;;;-1.30;81.74;98702.02;2111729;83;20513;-77
2022/04/01 07:15:02;;;;;;;;;;;;;;;-1.28;81.67;98704.03;2109496;83;20161;-81
2022/04/01 07:18:04;;;;;;;;;;;;;;;-1.27;81.29;98697.86;2111484;83;20142;-81
2022/04/01 07:21:05;;;;;;;;;;;;;;;-1.25;81.27;98696.45;2120020;83;20176;-78
2022/04/01 07:24:08;;;;;;;;;;;;;;;-1.19;81.39;98698.05;2120496;83;20139;-81
2022/04/01 07:27:11;;;;;;;;;;;;;;;-1.19;80.76;98698.54;2118044;83;20122;-81
2022/04/01 07:30:12;;;;;;;;;;;;;;;-1.18;81.06;98697.13;2119631;83;20612;-81
2022/04/01 07:33:13;;;;;;;;;;;;;;;-1.14;80.98;98698.51;2115074;83;20215;-82
2022/04/01 07:36:14;;;;;;;;;;;;;;;-1.12;80.60;98710.11;2117489;83;20129;-78
2022/04/01 07:39:15;;;;;;;;;;;;;;;-1.12;80.72;98710.11;2120190;83;20474;-83
2022/04/01 07:42:18;;;;;;;;;;;;;;;-1.10;80.95;98710.78;2118218;83;20138;-84
2022/04/01 07:45:19;;;;;;;;;;;;;;;-1.04;80.74;98714.66;2117127;83;20441;-81
2022/04/01 07:48:21;;;;;;;;;;;;;;;-1.02;80.42;98708.38;2116797;83;20190;-84
2022/04/01 07:51:23;;;;;;;;;;;;;;;-0.95;80.67;98713.91;2122266;83;20160;-83
2022/04/01 07:54:24;;;;;;;;;;;;;;;-0.95;79.99;98718.64;2117280;83;20140;-83
2022/04/01 07:57:25;;;;;;;;;;;;;;;-0.96;80.14;98716.15;2118481;83;20153;-85
2022/04/01 08:00:26;;;;;;;;;;;;;;;-0.94;80.47;98715.07;2117771;83;20175;-83
2022/04/01 08:03:27;;;;;;;;;;;;;;;-0.83;80.61;98712.87;2119723;83;20202;-83
2022/04/01 08:06:30;;;;;;;;;;;;;;;-0.84;80.24;98717.75;2117003;83;20986;-84
2022/04/01 08:09:33;;;;;;;;;;;;;;;-0.84;80.44;98719.53;2118800;83;20176;-79
2022/04/01 08:12:34;;;;;;;;;;;;;;;-0.82;80.72;98727.54;2115946;83;20168;-81
2022/04/01 08:15:35;;;;;;;;;;;;;;;-0.85;80.10;98730.41;2121717;83;20165;-81
2022/04/01 08:18:36;;;;;;;;;;;;;;;-0.86;80.67;98727.95;2115781;83;20549;-82
2022/04/01 08:21:37;;;;;;;;;;;;;;;-0.83;80.88;98740.23;2114247;83;20135;-80
2022/04/01 08:24:38;;;;;;;;;;;;;;;-0.84;80.43;98731.25;2116763;83;20171;-83
2022/04/01 08:27:39;;;;;;;;;;;;;;;-0.83;80.31;98744.61;2113505;83;20119;-80
2022/04/01 08:30:41;;;;;;;;;;;;;;;-0.83;80.32;98741.53;2113668;83;20131;-81
2022/04/01 08:33:42;;;;;;;;;;;;;;;-0.81;80.15;98744.02;2115912;83;20162;-85
2022/04/01 08:36:43;;;;;;;;;;;;;;;-0.78;80.23;98747.67;2111219;83;20130;-81
2022/04/01 08:39:45;;;;;;;;;;;;;;;-0.75;79.99;98746.10;2113733;83;20128;-82
2022/04/01 08:42:47;;;;;;;;;;;;;;;-0.73;79.54;98749.41;2112006;83;20132;-84
2022/04/01 08:45:48;;;;;;;;;;;;;;;-0.76;79.01;98747.89;2112293;83;20453;-81
2022/04/01 08:48:50;;;;;;;;;;;;;;;-0.72;79.13;98754.96;2112882;83;20195;-82
2022/04/01 08:51:51;;;;;;;;;;;;;;;-0.69;78.96;98759.91;2114550;83;20542;-80
2022/04/01 08:54:52;;;;;;;;;;;;;;;-0.67;79.32;98752.80;2114325;83;20123;-84
2022/04/01 08:57:53;;;;;;;;;;;;;;;-0.65;79.08;98761.30;2114120;83;20451;-83
2022/04/01 09:00:57;;;;;;;;;;;;;;;-0.65;78.91;98758.69;2112110;83;20162;-84
2022/04/01 09:04:02;;;;;;;;;;;;;;;-0.65;78.60;98766.98;2113734;83;20355;-79
2022/04/01 09:07:11;;;;;;;;;;;;;;;-0.67;78.75;98759.31;2110474;83;20623;-85
2022/04/01 09:10:12;;;;;;;;;;;;;;;-0.67;78.78;98770.22;2115254;83;20136;-78
2022/04/01 09:13:13;;;;;;;;;;;;;;;-0.66;78.49;98767.47;2115279;83;20138;-79
2022/04/01 09:16:27;;;;;;;;;;;;;;;-0.64;79.03;98766.05;2116927;83;20132;-82
2022/04/01 09:19:31;;;;;;;;;;;;;;;-0.64;79.15;98768.17;2114490;83;20132;-79
2022/04/01 09:22:33;;;;;;;;;;;;;;;-0.64;78.98;98764.75;2109900;83;20174;-78
2022/04/01 09:25:34;;;;;;;;;;;;;;;-0.60;79.38;98764.34;2112268;83;20480;-81
2022/04/01 09:28:41;;;;;;;;;;;;;;;-0.50;79.39;98782.17;2107835;83;20425;-82
2022/04/01 09:31:42;;;;;;;;;;;;;;;-0.51;79.03;98777.08;2111865;83;20131;-83
2022/04/01 09:34:43;;;;;;;;;;;;;;;-0.50;78.62;98777.44;2110964;83;20485;-80
2022/04/01 09:37:46;;;;;;;;;;;;;;;-0.51;78.77;98781.83;2111149;83;20135;-81
2022/04/01 09:40:50;;;;;;;;;;;;;;;-0.48;79.01;98778.97;2112001;83;20265;-77
2022/04/01 09:43:55;;;;;;;;;;;;;;;-0.43;79.05;98776.44;2115058;83;20279;-79
2022/04/01 09:46:59;;;;;;;;;;;;;;;-0.37;78.91;98780.64;2114706;83;20131;-79
2022/04/01 09:50:04;;;;;;;;;;;;;;;-0.37;78.68;98778.03;2112273;83;20458;-79
2022/04/01 09:53:10;;;;;;;;;;;;;;;-0.33;78.71;98781.23;2106558;83;20164;-81
2022/04/01 09:56:11;;;;;;;;;;;;;;;-0.29;78.79;98779.52;2114186;83;20148;-81
2022/04/01 09:59:14;;;;;;;;;;;;;;;-0.28;78.07;98776.45;2114049;83;20120;-81
2022/04/01 10:02:16;;;;;;;;;;;;;;;-0.29;78.62;98778.70;2112680;83;20135;-79
2022/04/01 10:05:17;;;;;;;;;;;;;;;-0.29;78.54;98783.42;2114315;83;20189;-78
2022/04/01 10:08:19;;;;;;;;;;;;;;;-0.30;78.66;98775.75;2107462;83;20143;-79
2022/04/01 10:11:20;;;;;;;;;;;;;;;-0.26;78.41;98777.12;2111858;83;20132;-79
2022/04/01 10:14:31;;;;;;;;;;;;;;;-0.24;78.58;98770.83;2115217;83;20139;-79
2022/04/01 10:17:30;;;;;;;;;;;;;;;-0.22;78.29;98774.63;2110133;83;20139;-79
2022/04/01 10:20:33;;;;;;;;;;;;;;;-0.22;78.36;98775.11;2110606;83;20294;-80
2022/04/01 10:23:36;;;;;;;;;;;;;;;-0.22;78.61;98773.32;2111951;83;20110;-79
2022/04/01 10:26:41;;;;;;;;;;;;;;;-0.20;78.82;98769.27;2105556;83;20142;-82
2022/04/01 10:29:44;;;;;;;;;;;;;;;-0.14;78.51;98782.63;2112140;83;20127;-80
2022/04/01 10:32:47;;;;;;;;;;;;;;;-0.14;78.56;98770.03;2110502;83;20110;-81
2022/04/01 10:35:49;;;;;;;;;;;;;;;-0.12;78.77;98777.25;2109985;83;20163;-80
2022/04/01 10:39:05;;;;;;;;;;;;;;;-0.15;78.99;98778.34;2114390;83;20117;-82
2022/04/01 10:42:08;;;;;;;;;;;;;;;-0.10;79.00;98783.99;2110099;83;20214;-80
2022/04/01 10:45:19;;;;;;;;;;;;;;;-0.08;78.94;98781.27;2116290;83;20171;-80
2022/04/01 10:51:42;;;;;;;;;;;;;;;-0.01;78.51;98793.62;2114063;83;20134;-79
2022/04/01 10:54:44;;;;;;;;;;;;;;;-0.06;78.45;98796.28;2114133;83;20593;-81
2022/04/01 10:57:47;;;;;;;;;;;;;;;-0.06;78.74;98797.14;2109887;83;20131;-79
2022/04/01 11:00:52;;;;;;;;;;;;;;;-0.04;78.95;98801.72;2113354;83;20256;-82
2022/04/01 11:03:53;;;;;;;;;;;;;;;-0.02;78.87;98799.81;2113092;83;20144;-80
2022/04/01 11:07:14;;;;;;;;;;;;;;;0.05;78.90;98800.58;2113439;83;20204;-81
2022/04/01 11:10:24;;;;;;;;;;;;;;;0.08;78.46;98799.02;2111198;83;20278;-79
2022/04/01 11:13:29;;;;;;;;;;;;;;;0.08;79.03;98792.01;2111663;83;20139;-82
2022/04/01 11:16:46;;;;;;;;;;;;;;;0.11;79.21;98794.34;2112002;83;20143;-79
2022/04/01 11:20:14;;;;;;;;;;;;;;;0.17;79.30;98791.69;2107139;83;20142;-79
2022/04/01 11:23:16;;;;;;;;;;;;;;;0.24;79.30;98797.22;2111551;83;20136;-81
2022/04/01 11:26:17;;;;;;;;;;;;;;;0.30;79.47;98798.80;2110397;83;20222;-78
2022/04/01 11:29:21;;;;;;;;;;;;;;;0.31;78.94;98799.17;2112719;83;20162;-78
2022/04/01 11:32:23;;;;;;;;;;;;;;;0.32;79.08;98795.59;2111936;83;20161;-78
2022/04/01 11:35:26;;;;;;;;;;;;;;;0.31;78.39;98800.93;2110424;83;20186;-80
2022/04/01 11:38:29;;;;;;;;;;;;;;;0.21;78.58;98799.61;2110365;83;20139;-77
2022/04/01 11:41:46;;;;;;;;;;;;;;;0.21;79.02;98807.44;2111115;83;20142;-82
2022/04/01 11:44:58;;;;;;;;;;;;;;;0.23;79.31;98801.62;2113931;83;20202;-80
2022/04/01 11:48:01;;;;;;;;;;;;;;;0.27;79.22;98804.30;2111119;83;20137;-80
2022/04/01 11:51:09;;;;;;;;;;;;;;;0.29;79.13;98815.43;2113217;83;20180;-80
2022/04/01 11:54:10;;;;;;;;;;;;;;;0.22;78.95;98801.25;2110275;83;20141;-79
2022/04/01 11:57:11;;;;;;;;;;;;;;;0.18;79.36;98803.31;2110007;83;20144;-83
2022/04/01 12:00:27;;;;;;;;;;;;;;;0.17;79.25;98804.28;2110130;83;20164;-80
2022/04/01 12:03:28;;;;;;;;;;;;;;;0.19;79.58;98797.61;2113642;83;20147;-81
2022/04/01 12:09:49;;;;;;;;;;;;;;;0.26;79.92;98800.53;2114100;83;20130;-82
2022/04/01 12:12:58;;;;;;;;;;;;;;;0.28;79.49;98790.77;2115060;83;20609;-81
2022/04/01 12:15:59;;;;;;;;;;;;;;;0.29;79.42;98795.86;2112340;83;20186;-81
2022/04/01 12:19:00;;;;;;;;;;;;;;;0.36;78.94;98792.23;2109042;83;20486;-84
2022/04/01 12:22:01;;;;;;;;;;;;;;;0.39;79.19;98782.82;2112158;83;20152;-82
2022/04/01 12:25:03;;;;;;;;;;;;;;;0.43;78.81;98782.43;2108879;83;20136;-80
2022/04/01 12:28:07;;;;;;;;;;;;;;;0.51;78.97;98781.77;2108706;83;20174;-80
2022/04/01 12:31:22;;;;;;;;;;;;;;;0.56;77.95;98781.34;2112548;83;20174;-80
2022/04/01 12:34:25;;;;;;;;;;;;;;;0.61;77.92;98781.76;2110574;83;20142;-83
2022/04/01 12:37:26;;;;;;;;;;;;;;;0.66;77.38;98786.09;2109539;83;20131;-79
2022/04/01 12:40:27;;;;;;;;;;;;;;;0.70;76.47;98782.23;2110282;83;20115;-81
2022/04/01 12:43:44;;;;;;;;;;;;;;;0.75;76.90;98780.05;2112668;83;20157;-80
2022/04/01 12:46:49;;;;;;;;;;;;;;;0.78;76.97;98778.95;2109291;83;20161;-83
2022/04/01 12:49:50;;;;;;;;;;;;;;;0.83;76.85;98781.50;2114181;83;20408;-80
2022/04/01 12:52:51;;;;;;;;;;;;;;;0.91;75.52;98783.91;2110431;83;20133;-79
2022/04/01 12:55:53;;;;;;;;;;;;;;;0.94;75.88;98777.93;2112716;83;20173;-80
2022/04/01 12:58:57;;;;;;;;;;;;;;;0.98;74.47;98777.16;2112360;83;20152;-81
2022/04/01 13:02:12;;;;;;;;;;;;;;;0.99;75.27;98782.27;2108100;83;20158;-80
2022/04/01 13:05:13;;;;;;;;;;;;;;;1.05;75.25;98780.39;2111468;83;21196;-82
2022/04/01 13:08:17;;;;;;;;;;;;;;;1.13;75.42;98783.63;2109834;83;20134;-79
2022/04/01 13:11:19;;;;;;;;;;;;;;;1.15;74.34;98773.84;2108238;83;20153;-79
2022/04/01 13:14:22;;;;;;;;;;;;;;;1.21;74.85;98774.61;2114371;83;20135;-82
2022/04/01 13:17:24;;;;;;;;;;;;;;;1.29;74.83;98766.87;2108187;83;20138;-81
2022/04/01 13:20:30;;;;;;;;;;;;;;;1.36;73.05;98771.56;2112508;83;20172;-80
2022/04/01 13:23:32;;;;;;;;;;;;;;;1.38;72.90;98770.45;2117144;83;20140;-81
2022/04/01 13:26:33;;;;;;;;;;;;;;;1.43;73.81;98772.63;2103873;83;20439;-82
2022/04/01 13:29:35;;;;;;;;;;;;;;;1.47;70.50;98768.78;2111932;83;20172;-79
2022/04/01 13:32:36;;;;;;;;;;;;;;;1.53;70.70;98769.03;2110500;83;20209;-80
2022/04/01 13:35:38;;;;;;;;;;;;;;;1.53;69.66;98772.95;2110422;83;20118;-78
2022/04/01 13:38:40;;;;;;;;;;;;;;;1.51;69.77;98771.44;2110183;83;20153;-83
2022/04/01 13:41:41;;;;;;;;;;;;;;;1.48;69.75;98765.19;2117846;83;20161;-78
2022/04/01 13:44:43;;;;;;;;;;;;;;;1.45;70.02;98780.67;2112679;83;20156;-78
2022/04/01 13:47:44;;;;;;;;;;;;;;;1.43;69.67;98773.45;2111145;83;20131;-79
2022/04/01 13:50:46;;;;;;;;;;;;;;;1.42;68.65;98778.34;2110534;83;20175;-79
2022/04/01 13:53:47;;;;;;;;;;;;;;;1.39;69.75;98780.42;2111725;83;20138;-78
2022/04/01 13:56:50;;;;;;;;;;;;;;;1.37;69.38;98779.73;2113010;83;20442;-78
2022/04/01 13:59:52;;;;;;;;;;;;;;;1.34;69.13;98780.84;2116482;83;20166;-78
2022/04/01 14:02:53;;;;;;;;;;;;;;;1.30;69.32;98777.69;2114538;83;20149;-79
2022/04/01 14:05:55;;;;;;;;;;;;;;;1.30;69.47;98788.14;2111836;83;20806;-79
2022/04/01 14:08:56;;;;;;;;;;;;;;;1.30;68.90;98782.09;2112069;83;20194;-82
2022/04/01 14:11:57;;;;;;;;;;;;;;;1.29;68.84;98779.94;2111584;83;20107;-78
2022/04/01 14:14:59;;;;;;;;;;;;;;;1.28;69.15;98784.84;2115918;83;20191;-80
2022/04/01 14:18:01;;;;;;;;;;;;;;;1.29;68.12;98774.71;2108392;83;20137;-82
2022/04/01 14:21:06;;;;;;;;;;;;;;;1.31;68.22;98785.04;2114964;83;20135;-80
2022/04/01 14:24:06;;;;;;;;;;;;;;;1.29;67.96;98787.78;2112328;83;20141;-79
2022/04/01 14:27:10;;;;;;;;;;;;;;;1.29;67.85;98787.78;2106866;83;20184;-81
2022/04/01 14:30:18;;;;;;;;;;;;;;;1.30;68.05;98785.53;2110892;83;20519;-78
2022/04/01 14:33:19;;;;;;;;;;;;;;;1.34;69.15;98786.88;2108618;83;20152;-79
2022/04/01 14:36:21;;;;;;;;;;;;;;;1.37;69.60;98792.80;2117328;83;20165;-82
2022/04/01 14:39:23;;;;;;;;;;;;;;;1.39;68.68;98781.73;2113865;83;20145;-78
2022/04/01 14:42:25;;;;;;;;;;;;;;;1.40;69.30;98786.80;2111712;83;20120;-80
2022/04/01 14:45:28;;;;;;;;;;;;;;;1.42;69.55;98795.83;2102436;83;20142;-80
2022/04/01 14:48:30;;;;;;;;;;;;;;;1.42;69.28;98797.13;2107958;83;20173;-78
2022/04/01 14:51:32;;;;;;;;;;;;;;;1.43;69.50;98794.84;2112090;83;20115;-78
2022/04/01 14:54:33;;;;;;;;;;;;;;;1.43;69.42;98792.23;2107772;83;20137;-79
2022/04/01 14:57:36;;;;;;;;;;;;;;;1.44;68.99;98803.05;2113203;83;20154;-79
2022/04/01 15:00:37;;;;;;;;;;;;;;;1.45;69.42;98796.84;2114987;83;20186;-80
2022/04/01 15:03:38;;;;;;;;;;;;;;;1.46;69.04;98803.22;2110866;83;20464;-79
2022/04/01 15:06:41;;;;;;;;;;;;;;;1.47;69.16;98804.08;2111426;83;20192;-80
2022/04/01 15:09:42;;;;;;;;;;;;;;;1.48;69.03;98808.33;2112820;83;20143;-78
2022/04/01 15:12:44;;;;;;;;;;;;;;;1.47;69.12;98807.51;2112146;83;20139;-78
2022/04/01 15:15:45;;;;;;;;;;;;;;;1.50;69.34;98805.09;2114260;83;20188;-80
2022/04/01 15:18:46;;;;;;;;;;;;;;;1.50;69.20;98799.87;2115573;83;20166;-80
2022/04/01 15:21:47;;;;;;;;;;;;;;;1.52;69.10;98795.30;2121297;83;20472;-79
2022/04/01 15:24:49;;;;;;;;;;;;;;;1.55;69.17;98804.20;2130639;82;20160;-80
2022/04/01 15:27:50;;;;;;;;;;;;;;;1.58;69.10;98801.30;2129794;82;20590;-76
2022/04/01 15:30:51;;;;;;;;;;;;;;;1.60;69.18;98799.83;2124565;82;20180;-79
2022/04/01 15:33:54;;;;;;;;;;;;;;;1.64;69.00;98805.13;2130532;82;20176;-77
2022/04/01 15:36:57;;;;;;;;;;;;;;;1.62;69.09;98805.27;2124637;82;20183;-78
2022/04/01 15:40:02;;;;;;;;;;;;;;;1.66;69.34;98810.57;2124165;82;20555;-78
2022/04/01 15:43:05;;;;;;;;;;;;;;;1.69;69.25;98810.73;2129485;83;20149;-82
2022/04/01 15:46:08;;;;;;;;;;;;;;;1.71;69.19;98813.55;2129431;82;20614;-77
2022/04/01 15:49:10;;;;;;;;;;;;;;;1.74;69.34;98821.11;2122533;82;20459;-78
2022/04/01 15:52:12;;;;;;;;;;;;;;;1.74;69.24;98821.11;2126833;83;20624;-81
2022/04/01 15:55:13;;;;;;;;;;;;;;;1.75;69.39;98821.48;2124837;83;20180;-78
2022/04/01 15:58:15;;;;;;;;;;;;;;;1.77;69.50;98823.94;2125380;83;20114;-80
2022/04/01 16:01:21;;;;;;;;;;;;;;;1.78;69.63;98822.50;2127741;83;20124;-81
2022/04/01 16:04:23;;;;;;;;;;;;;;;1.78;69.61;98825.60;2122662;82;20156;-81
2022/04/01 16:07:30;;;;;;;;;;;;;;;1.76;69.70;98828.34;2124053;83;20132;-80
2022/04/01 16:10:34;;;;;;;;;;;;;;;1.76;69.46;98828.83;2123468;83;20136;-79
2022/04/01 16:13:36;;;;;;;;;;;;;;;1.75;69.49;98828.50;2128646;82;20190;-82
2022/04/01 16:16:39;;;;;;;;;;;;;;;1.72;69.51;98836.14;2123646;82;20168;-82